createdAt,value
2016-12-13T00:00:05.188Z,1024.75
2016-12-13T00:05:04.746Z,1024.73
2016-12-13T00:10:04.421Z,1024.64
2016-12-13T00:15:04.882Z,1024.67
2016-12-13T00:20:04.571Z,1024.73
2016-12-13T00:25:05.133Z,1024.72
2016-12-13T00:30:04.444Z,1024.72
2016-12-13T00:35:04.762Z,1024.7
2016-12-13T00:40:05.303Z,1024.67
2016-12-13T00:45:04.533Z,1024.62
2016-12-13T00:50:04.356Z,1024.63
2016-12-13T00:55:04.549Z,1024.55
2016-12-13T01:00:04.636Z,1024.46
2016-12-13T01:05:04.725Z,1024.45
2016-12-13T01:10:04.924Z,1024.43
2016-12-13T01:15:04.395Z,1024.36
2016-12-13T01:20:04.632Z,1024.34
2016-12-13T01:25:04.672Z,1024.33
2016-12-13T01:30:05.008Z,1024.25
2016-12-13T01:35:04.883Z,1024.23
2016-12-13T01:40:04.335Z,1024.24
2016-12-13T01:45:04.986Z,1024.22
2016-12-13T01:50:04.925Z,1024.15
2016-12-13T01:55:04.817Z,1024.19
2016-12-13T02:00:04.456Z,1024.09
2016-12-13T02:05:04.512Z,1024.05
2016-12-13T02:10:04.947Z,1024
2016-12-13T02:15:05.157Z,1023.96
2016-12-13T02:20:04.601Z,1023.94
2016-12-13T02:25:04.805Z,1023.87
2016-12-13T02:30:04.989Z,1023.83
2016-12-13T02:35:05.133Z,1023.86
2016-12-13T02:40:04.630Z,1023.8
2016-12-13T02:45:04.733Z,1023.77
2016-12-13T02:50:04.858Z,1023.75
2016-12-13T02:55:04.873Z,1023.65
2016-12-13T03:00:05.404Z,1023.65
2016-12-13T03:05:05.074Z,1023.63
2016-12-13T03:10:04.425Z,1023.73
2016-12-13T03:15:05.233Z,1023.7
2016-12-13T03:20:04.803Z,1023.68
2016-12-13T03:25:05.303Z,1023.66
2016-12-13T03:30:04.700Z,1023.6
2016-12-13T03:35:04.529Z,1023.59
2016-12-13T03:40:05.031Z,1023.62
2016-12-13T03:45:04.668Z,1023.57
2016-12-13T03:50:04.943Z,1023.62
2016-12-13T03:55:04.837Z,1023.58
2016-12-13T04:00:05.733Z,1023.56
2016-12-13T04:05:04.896Z,1023.52
2016-12-13T04:10:04.492Z,1023.43
2016-12-13T04:15:04.531Z,1023.52
2016-12-13T04:20:04.486Z,1023.46
2016-12-13T04:25:04.771Z,1023.41
2016-12-13T04:30:04.958Z,1023.45
2016-12-13T04:35:04.367Z,1023.37
2016-12-13T04:40:04.937Z,1023.36
2016-12-13T04:45:05.336Z,1023.36
2016-12-13T04:50:04.609Z,1023.38
2016-12-13T04:55:04.953Z,1023.43
2016-12-13T05:00:04.740Z,1023.48
2016-12-13T05:05:04.867Z,1023.49
2016-12-13T05:10:04.356Z,1023.49
2016-12-13T05:15:04.740Z,1023.44
2016-12-13T05:20:04.707Z,1023.44
2016-12-13T05:25:05.203Z,1023.27
2016-12-13T05:30:04.652Z,1023.28
2016-12-13T05:35:04.448Z,1023.23
2016-12-13T05:40:04.933Z,1023.34
2016-12-13T05:45:04.881Z,1023.34
2016-12-13T05:50:04.949Z,1023.24
2016-12-13T05:55:04.847Z,1023.23
2016-12-13T06:00:05.183Z,1023.28
2016-12-13T06:05:04.799Z,1023.26
2016-12-13T06:10:04.633Z,1023.28
2016-12-13T06:15:04.933Z,1023.3
2016-12-13T06:20:04.627Z,1023.33
2016-12-13T06:25:04.581Z,1023.3
2016-12-13T06:30:04.513Z,1023.42
2016-12-13T06:35:05.767Z,1023.35
2016-12-13T06:40:04.708Z,1023.26
2016-12-13T06:45:04.442Z,1023.32
2016-12-13T06:50:04.644Z,1023.42
2016-12-13T06:55:04.675Z,1023.4
2016-12-13T07:00:05.061Z,1023.37
2016-12-13T07:05:05.076Z,1023.42
2016-12-13T07:10:04.987Z,1023.42
2016-12-13T07:15:05.080Z,1023.44
2016-12-13T07:20:05.095Z,1023.52
2016-12-13T07:25:04.943Z,1023.53
2016-12-13T07:30:05.180Z,1023.48
2016-12-13T07:35:05.118Z,1023.5
2016-12-13T07:40:04.339Z,1023.6
2016-12-13T07:45:05.076Z,1023.64
2016-12-13T07:50:05.148Z,1023.67
2016-12-13T07:55:04.299Z,1023.62
2016-12-13T08:00:04.425Z,1023.67
2016-12-13T08:05:04.655Z,1023.67
2016-12-13T08:10:04.652Z,1023.65
2016-12-13T08:15:04.428Z,1023.71
2016-12-13T08:20:04.557Z,1023.74
2016-12-13T08:25:04.458Z,1023.69
2016-12-13T08:30:04.940Z,1023.69
2016-12-13T08:35:04.813Z,1023.77
2016-12-13T08:40:05.454Z,1023.71
2016-12-13T08:45:04.505Z,1023.63
2016-12-13T08:50:04.508Z,1023.65
2016-12-13T08:55:04.483Z,1023.66
2016-12-13T09:00:04.427Z,1023.68
2016-12-13T09:05:04.653Z,1023.66
2016-12-13T09:10:04.333Z,1023.6
2016-12-13T09:15:04.920Z,1023.68
2016-12-13T09:20:04.985Z,1023.7
2016-12-13T09:25:04.660Z,1023.72
2016-12-13T09:30:04.301Z,1023.82
2016-12-13T09:35:04.926Z,1023.93
2016-12-13T09:40:04.973Z,1023.91
2016-12-13T09:45:04.538Z,1023.94
2016-12-13T09:50:04.365Z,1023.93
2016-12-13T09:55:04.437Z,1023.94
2016-12-13T10:00:05.135Z,1023.92
2016-12-13T10:05:04.875Z,1023.96
2016-12-13T10:10:04.366Z,1023.89
2016-12-13T10:15:04.474Z,1023.86
2016-12-13T10:20:05.090Z,1023.75
2016-12-13T10:25:04.851Z,1023.72
2016-12-13T10:30:04.843Z,1023.68
2016-12-13T10:35:05.012Z,1023.66
2016-12-13T10:40:04.522Z,1023.64
2016-12-13T10:45:04.627Z,1023.6
2016-12-13T10:50:05.217Z,1023.53
2016-12-13T10:55:04.821Z,1023.45
2016-12-13T11:00:05.215Z,1023.43
2016-12-13T11:05:04.654Z,1023.53
2016-12-13T11:10:05.075Z,1023.58
2016-12-13T11:15:04.956Z,1023.56
2016-12-13T11:20:04.430Z,1023.63
2016-12-13T11:25:04.421Z,1023.62
2016-12-13T11:30:04.893Z,1023.55
2016-12-13T11:35:04.972Z,1023.51
2016-12-13T11:40:05.144Z,1023.42
2016-12-13T11:45:04.480Z,1023.4
2016-12-13T11:50:04.471Z,1023.36
2016-12-13T11:55:04.786Z,1023.3
2016-12-13T12:00:04.676Z,1023.21
2016-12-13T12:05:04.303Z,1023.15
2016-12-13T12:10:05.229Z,1023.17
2016-12-13T12:15:05.239Z,1023.1
2016-12-13T12:20:05.239Z,1023.14
2016-12-13T12:25:04.739Z,1023.1
2016-12-13T12:30:04.326Z,1023.03
2016-12-13T12:35:04.885Z,1023.02
2016-12-13T12:40:04.506Z,1023
2016-12-13T12:45:04.628Z,1022.91
2016-12-13T12:50:04.861Z,1022.99
2016-12-13T12:55:04.934Z,1023
2016-12-13T13:00:04.730Z,1022.9
2016-12-13T13:05:04.327Z,1022.9
2016-12-13T13:10:04.801Z,1022.81
2016-12-13T13:15:05.069Z,1022.84
2016-12-13T13:20:04.598Z,1022.82
2016-12-13T13:25:04.891Z,1022.77
2016-12-13T13:30:05.057Z,1022.7
2016-12-13T13:35:04.982Z,1022.67
2016-12-13T13:40:04.459Z,1022.67
2016-12-13T13:45:05.025Z,1022.76
2016-12-13T13:50:04.339Z,1022.71
2016-12-13T13:55:04.483Z,1022.64
2016-12-13T14:00:04.773Z,1022.69
2016-12-13T14:05:04.948Z,1022.74
2016-12-13T14:10:04.755Z,1022.78
2016-12-13T14:15:04.479Z,1022.8
2016-12-13T14:20:04.563Z,1022.67
2016-12-13T14:25:04.435Z,1022.77
2016-12-13T14:30:05.027Z,1022.73
2016-12-13T14:35:05.155Z,1022.8
2016-12-13T14:40:04.392Z,1022.74
2016-12-13T14:45:05.174Z,1022.77
2016-12-13T14:50:04.558Z,1022.81
2016-12-13T14:55:04.922Z,1022.79
2016-12-13T15:00:04.397Z,1022.86
2016-12-13T15:05:04.859Z,1022.81
2016-12-13T15:10:05.006Z,1022.86
2016-12-13T15:15:04.696Z,1022.84
2016-12-13T15:20:04.889Z,1022.95
2016-12-13T15:25:04.213Z,1022.85
2016-12-13T15:30:05.102Z,1022.84
2016-12-13T15:35:04.290Z,1022.82
2016-12-13T15:40:04.879Z,1022.79
2016-12-13T15:45:04.798Z,1022.81
2016-12-13T15:50:05.032Z,1022.84
2016-12-13T15:55:04.798Z,1022.83
2016-12-13T16:00:04.589Z,1022.85
2016-12-13T16:05:04.822Z,1022.9
2016-12-13T16:10:04.284Z,1022.92
2016-12-13T16:15:04.379Z,1022.96
2016-12-13T16:20:04.817Z,1022.95
2016-12-13T16:25:04.779Z,1022.94
2016-12-13T16:30:04.325Z,1022.93
2016-12-13T16:35:05.001Z,1022.92
2016-12-13T16:40:04.645Z,1022.94
2016-12-13T16:45:04.334Z,1022.98
2016-12-13T16:50:04.691Z,1023
2016-12-13T16:55:04.408Z,1022.95
2016-12-13T17:00:05.094Z,1022.96
2016-12-13T17:05:04.531Z,1022.99
2016-12-13T17:10:04.514Z,1022.95
2016-12-13T17:15:04.511Z,1022.96
2016-12-13T17:20:04.785Z,1022.95
2016-12-13T17:25:04.859Z,1022.91
2016-12-13T17:30:04.925Z,1022.89
2016-12-13T17:35:04.991Z,1022.98
2016-12-13T17:40:05.367Z,1022.95
2016-12-13T17:45:04.971Z,1022.86
2016-12-13T17:50:05.301Z,1022.83
2016-12-13T17:55:04.591Z,1022.82
2016-12-13T18:00:04.764Z,1022.81
2016-12-13T18:05:04.653Z,1022.9
2016-12-13T18:10:04.616Z,1022.88
2016-12-13T18:15:04.618Z,1022.83
2016-12-13T18:20:04.379Z,1022.86
2016-12-13T18:25:05.343Z,1022.89
2016-12-13T18:30:04.903Z,1022.85
2016-12-13T18:35:05.104Z,1022.8
2016-12-13T18:40:04.880Z,1022.82
2016-12-13T18:45:04.676Z,1022.81
2016-12-13T18:50:05.077Z,1022.78
2016-12-13T18:55:05.096Z,1022.72
2016-12-13T19:00:05.259Z,1022.76
2016-12-13T19:05:04.903Z,1022.79
2016-12-13T19:10:05.261Z,1022.81
2016-12-13T19:15:05.208Z,1022.85
2016-12-13T19:20:04.480Z,1022.86
2016-12-13T19:25:04.540Z,1022.91
2016-12-13T19:30:04.846Z,1022.9
2016-12-13T19:35:05.102Z,1022.97
2016-12-13T19:40:05.389Z,1022.98
2016-12-13T19:45:04.596Z,1022.97
2016-12-13T19:50:04.624Z,1022.97
2016-12-13T19:55:05.134Z,1022.95
2016-12-13T20:00:04.881Z,1022.95
2016-12-13T20:05:05.249Z,1022.98
2016-12-13T20:10:05.429Z,1023.02
2016-12-13T20:15:04.422Z,1023
2016-12-13T20:20:05.204Z,1023.02
2016-12-13T20:25:05.233Z,1022.99
2016-12-13T20:30:05.385Z,1022.91
2016-12-13T20:35:04.518Z,1022.88
2016-12-13T20:40:05.085Z,1022.92
2016-12-13T20:45:05.353Z,1022.9
2016-12-13T20:50:05.050Z,1022.83
2016-12-13T20:55:04.957Z,1022.81
2016-12-13T21:00:04.771Z,1022.81
2016-12-13T21:05:04.740Z,1022.79
2016-12-13T21:10:04.449Z,1022.82
2016-12-13T21:15:04.448Z,1022.94
2016-12-13T21:20:05.040Z,1022.8
2016-12-13T21:25:04.357Z,1022.85
2016-12-13T21:30:05.013Z,1022.9
2016-12-13T21:35:05.171Z,1022.81
2016-12-13T21:40:05.261Z,1022.85
2016-12-13T21:45:05.091Z,1022.82
2016-12-13T21:50:04.897Z,1022.78
2016-12-13T21:55:05.130Z,1022.87
2016-12-13T22:00:04.695Z,1022.84
2016-12-13T22:05:04.475Z,1022.83
2016-12-13T22:10:04.899Z,1022.81
2016-12-13T22:15:04.882Z,1022.89
2016-12-13T22:20:04.792Z,1022.91
2016-12-13T22:25:05.256Z,1022.86
2016-12-13T22:30:05.150Z,1022.94
2016-12-13T22:35:04.283Z,1022.88
2016-12-13T22:40:04.686Z,1022.85
2016-12-13T22:45:04.809Z,1022.73
2016-12-13T22:50:04.815Z,1022.76
2016-12-13T22:55:04.758Z,1022.8
2016-12-13T23:00:04.530Z,1022.82
2016-12-13T23:05:04.870Z,1022.8
2016-12-13T23:10:05.157Z,1022.75
2016-12-13T23:15:04.320Z,1022.79
2016-12-13T23:20:05.385Z,1022.82
2016-12-13T23:25:04.960Z,1022.75
2016-12-13T23:30:04.912Z,1022.72
2016-12-13T23:35:05.115Z,1022.73
2016-12-13T23:40:04.726Z,1022.78
2016-12-13T23:45:04.781Z,1022.77
2016-12-13T23:50:04.388Z,1022.72
2016-12-13T23:55:05.252Z,1022.65
